createdAt,value
2022-08-24T00:01:49.177Z,67.40
2022-08-24T00:04:16.189Z,67.50
2022-08-24T00:06:44.508Z,67.50
2022-08-24T00:09:12.583Z,67.50
2022-08-24T00:11:39.334Z,67.60
2022-08-24T00:14:06.099Z,67.60
2022-08-24T00:16:32.904Z,67.60
2022-08-24T00:18:59.661Z,67.40
2022-08-24T00:21:26.449Z,67.50
2022-08-24T00:23:53.282Z,67.50
2022-08-24T00:26:28.741Z,67.50
2022-08-24T00:28:56.143Z,67.50
2022-08-24T00:31:22.916Z,67.50
2022-08-24T00:33:49.726Z,67.50
2022-08-24T00:36:16.989Z,67.50
2022-08-24T00:38:43.881Z,67.50
2022-08-24T00:41:10.621Z,67.90
2022-08-24T00:43:38.687Z,68.00
2022-08-24T00:46:16.035Z,67.90
2022-08-24T00:48:47.520Z,68.60
2022-08-24T00:51:18.210Z,69.00
2022-08-24T00:53:48.973Z,68.40
2022-08-24T00:56:20.191Z,68.30
2022-08-24T00:58:57.085Z,68.50
2022-08-24T01:01:25.853Z,67.70
2022-08-24T01:03:56.833Z,68.00
2022-08-24T01:06:24.560Z,68.80
2022-08-24T01:08:56.379Z,68.10
2022-08-24T01:11:26.079Z,68.00
2022-08-24T01:13:55.172Z,68.10
2022-08-24T01:16:22.816Z,68.60
2022-08-24T01:18:49.577Z,68.10
2022-08-24T01:21:19.835Z,68.80
2022-08-24T01:23:50.637Z,68.40
2022-08-24T01:26:20.898Z,69.00
2022-08-24T01:28:50.330Z,69.00
2022-08-24T01:31:21.186Z,69.00
2022-08-24T01:33:50.200Z,68.70
2022-08-24T01:36:28.540Z,69.30
2022-08-24T01:38:59.924Z,68.80
2022-08-24T01:41:29.020Z,68.80
2022-08-24T01:43:56.685Z,68.50
2022-08-24T01:46:23.488Z,68.50
2022-08-24T01:48:50.273Z,68.20
2022-08-24T01:51:17.049Z,68.90
2022-08-24T01:53:43.787Z,69.00
2022-08-24T01:56:11.904Z,68.60
2022-08-24T01:58:43.937Z,68.40
2022-08-24T02:01:10.837Z,68.80
2022-08-24T02:03:37.625Z,68.60
2022-08-24T02:06:04.643Z,68.30
2022-08-24T02:08:31.456Z,69.10
2022-08-24T02:10:58.212Z,67.90
2022-08-24T02:13:26.572Z,68.50
2022-08-24T02:15:53.398Z,68.90
2022-08-24T02:18:20.223Z,68.40
2022-08-24T02:20:47.020Z,68.40
2022-08-24T02:23:13.900Z,68.50
2022-08-24T02:25:40.641Z,68.70
2022-08-24T02:28:07.379Z,68.30
2022-08-24T02:30:35.472Z,69.30
2022-08-24T02:33:02.661Z,69.40
2022-08-24T02:35:30.411Z,69.30
2022-08-24T02:37:57.674Z,69.10
2022-08-24T02:40:24.930Z,68.90
2022-08-24T02:42:51.729Z,69.10
2022-08-24T02:45:18.702Z,69.00
2022-08-24T02:47:46.798Z,70.20
2022-08-24T02:50:16.172Z,69.80
2022-08-24T02:52:43.566Z,69.20
2022-08-24T02:55:12.758Z,68.80
2022-08-24T02:57:39.627Z,69.10
2022-08-24T03:00:10.450Z,69.40
2022-08-24T03:02:37.637Z,69.00
2022-08-24T03:05:07.680Z,69.40
2022-08-24T03:07:34.529Z,69.00
2022-08-24T03:10:01.293Z,68.80
2022-08-24T03:12:28.079Z,68.40
2022-08-24T03:14:54.801Z,68.60
2022-08-24T03:17:21.650Z,68.50
2022-08-24T03:19:48.373Z,69.00
2022-08-24T03:22:16.653Z,69.20
2022-08-24T03:24:43.404Z,69.00
2022-08-24T03:27:13.140Z,68.40
2022-08-24T03:29:40.652Z,68.40
2022-08-24T03:32:07.411Z,68.70
2022-08-24T03:34:34.454Z,69.40
2022-08-24T03:37:01.437Z,69.60
2022-08-24T03:39:29.838Z,69.60
2022-08-24T03:41:56.743Z,68.80
2022-08-24T03:44:23.566Z,68.60
2022-08-24T03:46:50.435Z,68.30
2022-08-24T03:49:17.242Z,68.30
2022-08-24T03:51:44.170Z,68.30
2022-08-24T03:54:13.408Z,68.80
2022-08-24T03:56:41.830Z,69.20
2022-08-24T03:59:09.775Z,69.40
2022-08-24T04:01:36.598Z,69.60
2022-08-24T04:04:04.374Z,70.10
2022-08-24T04:06:31.180Z,69.60
2022-08-24T04:08:58.280Z,69.50
2022-08-24T04:11:27.298Z,69.40
2022-08-24T04:13:57.525Z,69.60
2022-08-24T04:16:25.527Z,70.90
2022-08-24T04:18:52.459Z,70.60
2022-08-24T04:21:21.548Z,69.90
2022-08-24T04:23:49.286Z,69.90
2022-08-24T04:26:26.888Z,69.60
2022-08-24T04:29:08.249Z,70.50
2022-08-24T04:31:36.058Z,70.40
2022-08-24T04:34:03.134Z,70.40
2022-08-24T04:36:29.906Z,70.00
2022-08-24T04:38:56.636Z,70.60
2022-08-24T04:41:28.975Z,70.20
2022-08-24T04:43:58.669Z,70.50
2022-08-24T04:46:28.476Z,70.10
2022-08-24T04:48:55.332Z,69.60
2022-08-24T04:51:22.707Z,70.60
2022-08-24T04:53:50.715Z,70.10
2022-08-24T04:56:20.162Z,69.80
2022-08-24T04:58:47.700Z,70.50
2022-08-24T05:01:16.933Z,70.40
2022-08-24T05:03:45.897Z,70.10
2022-08-24T05:06:13.582Z,70.50
2022-08-24T05:08:40.338Z,70.60
2022-08-24T05:11:07.214Z,71.00
2022-08-24T05:13:34.233Z,70.40
2022-08-24T05:16:01.301Z,71.10
2022-08-24T05:18:28.222Z,71.20
2022-08-24T05:20:56.601Z,71.30
2022-08-24T05:23:23.323Z,71.60
2022-08-24T05:25:50.095Z,71.50
2022-08-24T05:28:16.958Z,71.90
2022-08-24T05:30:44.045Z,71.80
2022-08-24T05:33:11.368Z,71.50
2022-08-24T05:35:38.760Z,71.80
2022-08-24T05:38:11.681Z,72.50
2022-08-24T05:40:38.418Z,73.50
2022-08-24T05:43:05.482Z,73.90
2022-08-24T05:45:32.544Z,72.50
2022-08-24T05:47:59.302Z,72.80
2022-08-24T05:50:26.367Z,73.20
2022-08-24T05:52:53.112Z,74.30
2022-08-24T05:55:21.187Z,74.70
2022-08-24T05:57:47.928Z,75.60
2022-08-24T06:00:15.306Z,77.40
2022-08-24T06:02:42.200Z,76.40
2022-08-24T06:05:09.721Z,77.20
2022-08-24T06:07:36.453Z,76.90
2022-08-24T06:10:32.809Z,77.70
2022-08-24T06:12:51.881Z,78.90
2022-08-24T06:15:18.935Z,80.00
2022-08-24T06:17:45.787Z,79.00
2022-08-24T06:20:13.380Z,78.90
2022-08-24T06:22:40.121Z,80.00
2022-08-24T06:25:07.653Z,78.20
2022-08-24T06:27:34.571Z,79.10
2022-08-24T06:30:05.930Z,81.80
2022-08-24T06:32:32.657Z,80.80
2022-08-24T06:34:59.509Z,79.90
2022-08-24T06:37:26.575Z,83.00
2022-08-24T06:39:57.296Z,82.20
2022-08-24T06:42:24.746Z,79.80
2022-08-24T06:44:51.904Z,78.30
2022-08-24T06:47:20.293Z,77.20
2022-08-24T06:49:47.055Z,77.70
2022-08-24T06:52:13.786Z,76.70
2022-08-24T06:54:40.602Z,76.30
2022-08-24T06:57:07.538Z,74.50
2022-08-24T06:59:34.471Z,75.00
2022-08-24T07:02:01.355Z,74.10
2022-08-24T07:04:29.622Z,74.30
2022-08-24T07:06:56.516Z,72.50
2022-08-24T07:09:23.393Z,73.10
2022-08-24T07:11:50.315Z,72.20
2022-08-24T07:14:17.231Z,72.10
2022-08-24T07:16:44.009Z,71.80
2022-08-24T07:19:10.740Z,73.50
2022-08-24T07:21:38.818Z,72.00
2022-08-24T07:24:06.255Z,71.80
2022-08-24T07:26:33.195Z,71.70
2022-08-24T07:29:02.254Z,72.20
2022-08-24T07:31:33.300Z,71.50
2022-08-24T07:34:02.547Z,71.20
2022-08-24T07:36:29.418Z,71.40
2022-08-24T07:38:57.731Z,71.20
2022-08-24T07:41:56.763Z,71.00
2022-08-24T07:44:13.509Z,71.20
2022-08-24T07:46:41.575Z,71.30
2022-08-24T07:49:29.491Z,71.40
2022-08-24T07:51:56.146Z,71.70
2022-08-24T07:54:24.401Z,71.50
2022-08-24T07:56:51.138Z,71.50
2022-08-24T07:59:18.226Z,71.50
2022-08-24T08:01:45.143Z,71.70
2022-08-24T08:04:12.206Z,71.70
2022-08-24T08:06:38.992Z,71.50
2022-08-24T08:09:06.178Z,71.50
2022-08-24T08:11:34.229Z,71.60
2022-08-24T08:14:00.940Z,72.00
2022-08-24T08:16:27.950Z,71.90
2022-08-24T08:19:11.061Z,71.70
2022-08-24T08:21:41.929Z,71.70
2022-08-24T08:24:08.690Z,71.70
2022-08-24T08:26:36.782Z,71.60
2022-08-24T08:29:03.635Z,71.80
2022-08-24T08:31:30.406Z,71.80
2022-08-24T08:34:01.032Z,72.00
2022-08-24T08:36:28.053Z,72.00
2022-08-24T08:38:54.935Z,72.10
2022-08-24T08:41:56.866Z,71.90
2022-08-24T08:44:46.614Z,72.40
2022-08-24T08:47:31.597Z,72.20
2022-08-24T08:50:08.254Z,72.60
2022-08-24T08:53:07.385Z,73.10
2022-08-24T08:55:40.642Z,72.90
2022-08-24T08:58:19.539Z,73.00
2022-08-24T09:00:55.084Z,73.00
2022-08-24T09:03:52.450Z,73.00
2022-08-24T09:06:39.613Z,73.30
2022-08-24T09:09:41.414Z,73.70
2022-08-24T09:12:18.552Z,76.50
2022-08-24T09:15:09.610Z,74.00
2022-08-24T09:17:49.353Z,74.60
2022-08-24T09:20:48.007Z,75.10
2022-08-24T09:23:23.545Z,75.20
2022-08-24T09:26:02.179Z,75.60
2022-08-24T09:28:43.832Z,75.40
2022-08-24T09:31:42.249Z,75.50
2022-08-24T09:34:18.559Z,75.80
2022-08-24T09:36:53.438Z,76.20
2022-08-24T09:39:37.018Z,76.40
2022-08-24T09:42:55.473Z,76.70
2022-08-24T09:45:58.914Z,76.60
2022-08-24T09:48:46.880Z,76.60
2022-08-24T09:51:41.725Z,77.00
2022-08-24T09:54:51.678Z,77.00
2022-08-24T09:57:50.464Z,77.20
2022-08-24T10:00:27.366Z,77.40
2022-08-24T10:03:01.606Z,77.50
2022-08-24T10:05:41.866Z,77.80
2022-08-24T10:08:19.422Z,78.50
2022-08-24T10:10:56.817Z,78.50
2022-08-24T10:13:32.738Z,78.30
2022-08-24T10:16:16.025Z,78.20
2022-08-24T10:18:54.530Z,78.60
2022-08-24T10:21:36.781Z,79.20
2022-08-24T10:24:36.437Z,78.80
2022-08-24T10:27:15.183Z,79.20
2022-08-24T10:30:26.724Z,79.20
2022-08-24T10:33:07.006Z,79.10
2022-08-24T10:35:38.521Z,79.50
2022-08-24T10:38:23.982Z,79.60
2022-08-24T10:41:10.250Z,79.60
2022-08-24T10:44:06.555Z,80.20
2022-08-24T10:46:48.040Z,80.30
2022-08-24T10:49:56.454Z,80.30
2022-08-24T10:52:57.829Z,80.40
2022-08-24T10:55:28.333Z,80.80
2022-08-24T10:58:30.205Z,80.90
2022-08-24T11:01:17.143Z,80.70
2022-08-24T11:03:50.924Z,80.40
2022-08-24T11:06:19.007Z,80.80
2022-08-24T11:08:54.404Z,80.60
2022-08-24T11:11:30.369Z,81.00
2022-08-24T11:13:59.485Z,80.70
2022-08-24T11:16:33.099Z,81.10
2022-08-24T11:19:02.104Z,80.80
2022-08-24T11:21:39.253Z,80.80
2022-08-24T11:24:10.401Z,80.90
2022-08-24T11:26:53.769Z,81.20
2022-08-24T11:29:26.090Z,81.40
2022-08-24T11:31:53.114Z,80.70
2022-08-24T11:34:30.909Z,81.60
2022-08-24T11:36:58.106Z,80.90
2022-08-24T11:39:30.151Z,80.80
2022-08-24T11:42:03.443Z,80.90
2022-08-24T11:44:39.488Z,80.50
2022-08-24T11:47:31.498Z,80.70
2022-08-24T11:50:06.636Z,80.90
2022-08-24T11:52:48.347Z,80.80
2022-08-24T11:55:24.282Z,81.00
2022-08-24T11:57:59.206Z,81.20
2022-08-24T12:00:36.345Z,80.90
2022-08-24T12:03:08.586Z,80.90
2022-08-24T12:05:48.093Z,80.80
2022-08-24T12:08:21.446Z,80.70
2022-08-24T12:10:56.562Z,80.70
2022-08-24T12:13:33.025Z,81.00
2022-08-24T12:16:08.578Z,81.20
2022-08-24T12:18:46.210Z,80.80
2022-08-24T12:21:14.945Z,80.90
2022-08-24T12:23:44.504Z,81.00
2022-08-24T12:26:16.825Z,81.10
2022-08-24T12:28:54.207Z,80.70
2022-08-24T12:31:25.494Z,81.00
2022-08-24T12:33:55.931Z,80.80
2022-08-24T12:36:28.403Z,80.90
2022-08-24T12:39:05.942Z,81.00
2022-08-24T12:41:34.918Z,80.90
2022-08-24T12:44:07.571Z,80.90
2022-08-24T12:46:34.988Z,80.80
2022-08-24T12:49:08.513Z,80.90
2022-08-24T12:51:52.200Z,80.40
2022-08-24T12:54:34.722Z,81.10
2022-08-24T12:57:29.595Z,80.10
2022-08-24T13:00:02.529Z,79.00
2022-08-24T13:02:35.488Z,78.40
2022-08-24T13:05:11.134Z,79.30
2022-08-24T13:07:44.780Z,79.70
2022-08-24T13:10:15.862Z,79.80
2022-08-24T13:13:15.560Z,80.10
2022-08-24T13:15:57.748Z,80.00
2022-08-24T13:19:06.698Z,80.10
2022-08-24T13:21:55.638Z,79.50
2022-08-24T13:24:58.935Z,79.40
2022-08-24T13:28:10.899Z,78.00
2022-08-24T13:31:09.938Z,78.00
2022-08-24T13:33:41.752Z,78.20
2022-08-24T13:36:47.981Z,78.30
2022-08-24T13:39:56.283Z,78.60
2022-08-24T13:42:46.437Z,78.90
2022-08-24T13:45:23.506Z,78.70
2022-08-24T13:48:00.849Z,78.90
2022-08-24T13:50:33.055Z,78.80
2022-08-24T13:53:16.326Z,78.80
2022-08-24T13:55:48.725Z,78.60
2022-08-24T13:58:39.598Z,78.70
2022-08-24T14:01:26.643Z,78.20
2022-08-24T14:04:17.155Z,77.70
2022-08-24T14:06:54.946Z,77.20
2022-08-24T14:09:37.593Z,74.50
2022-08-24T14:12:17.451Z,75.60
2022-08-24T14:14:57.162Z,75.20
2022-08-24T14:17:36.971Z,75.10
2022-08-24T14:20:10.890Z,75.60
2022-08-24T14:22:52.129Z,75.90
2022-08-24T14:25:21.718Z,75.60
2022-08-24T14:27:49.812Z,76.10
2022-08-24T14:30:45.860Z,76.00
2022-08-24T14:33:20.959Z,76.10
2022-08-24T14:36:12.163Z,75.80
2022-08-24T14:38:51.891Z,76.00
2022-08-24T14:41:30.358Z,75.60
2022-08-24T14:44:33.732Z,76.00
2022-08-24T14:47:06.610Z,75.80
2022-08-24T14:49:42.089Z,76.10
2022-08-24T14:52:30.901Z,76.10
2022-08-24T14:55:07.131Z,76.00
2022-08-24T14:57:49.876Z,76.20
2022-08-24T15:00:19.799Z,76.00
2022-08-24T15:03:12.148Z,75.30
2022-08-24T15:06:25.358Z,75.00
2022-08-24T15:08:48.946Z,75.20
2022-08-24T15:11:21.906Z,75.60
2022-08-24T15:13:53.764Z,75.70
2022-08-24T15:16:25.466Z,75.40
2022-08-24T15:19:00.267Z,75.60
2022-08-24T15:21:36.031Z,75.50
2022-08-24T15:24:13.520Z,76.40
2022-08-24T15:26:58.539Z,75.40
2022-08-24T15:29:28.576Z,75.30
2022-08-24T15:31:58.232Z,75.20
2022-08-24T15:34:42.844Z,75.10
2022-08-24T15:37:10.005Z,74.70
2022-08-24T15:39:38.091Z,74.70
2022-08-24T15:42:10.218Z,74.60
2022-08-24T15:44:37.352Z,74.60
2022-08-24T15:47:11.761Z,74.30
2022-08-24T15:49:48.171Z,74.20
2022-08-24T15:52:37.059Z,73.90
2022-08-24T15:55:07.969Z,73.70
2022-08-24T15:57:39.278Z,73.40
2022-08-24T16:00:09.175Z,73.40
2022-08-24T16:02:36.282Z,73.40
2022-08-24T16:05:15.644Z,73.00
2022-08-24T16:08:06.937Z,72.50
2022-08-24T16:10:39.831Z,72.00
2022-08-24T16:13:08.570Z,72.60
2022-08-24T16:15:44.590Z,72.70
2022-08-24T16:18:11.586Z,71.90
2022-08-24T16:20:38.820Z,72.20
2022-08-24T16:23:07.982Z,72.40
2022-08-24T16:25:42.777Z,72.60
2022-08-24T16:28:12.478Z,72.40
2022-08-24T16:30:44.142Z,71.60
2022-08-24T16:33:43.526Z,72.00
2022-08-24T16:36:13.662Z,72.30
2022-08-24T16:38:46.808Z,72.50
2022-08-24T16:41:18.482Z,72.00
2022-08-24T16:43:46.018Z,73.20
2022-08-24T16:46:18.309Z,72.40
2022-08-24T16:48:45.193Z,72.40
2022-08-24T16:51:12.765Z,72.20
2022-08-24T16:53:46.696Z,72.00
2022-08-24T16:56:16.885Z,72.30
2022-08-24T16:58:48.318Z,72.10
2022-08-24T17:01:16.791Z,72.10
2022-08-24T17:03:46.029Z,72.10
2022-08-24T17:06:16.203Z,72.00
2022-08-24T17:08:46.790Z,72.10
2022-08-24T17:11:16.050Z,71.90
2022-08-24T17:13:49.733Z,71.80
2022-08-24T17:16:26.439Z,72.00
2022-08-24T17:18:54.635Z,72.10
2022-08-24T17:21:24.865Z,72.00
2022-08-24T17:23:52.366Z,72.00
2022-08-24T17:26:33.314Z,72.10
2022-08-24T17:29:04.377Z,72.00
2022-08-24T17:31:33.769Z,71.60
2022-08-24T17:34:01.596Z,71.80
2022-08-24T17:36:32.439Z,72.00
2022-08-24T17:39:06.366Z,72.10
2022-08-24T17:41:34.544Z,72.40
2022-08-24T17:44:01.585Z,72.50
2022-08-24T17:46:28.827Z,73.40
2022-08-24T17:48:57.413Z,72.50
2022-08-24T17:51:24.634Z,72.20
2022-08-24T17:53:51.959Z,72.30
2022-08-24T17:56:19.187Z,72.40
2022-08-24T17:58:47.509Z,72.70
2022-08-24T18:01:14.480Z,72.40
2022-08-24T18:03:45.832Z,72.90
2022-08-24T18:06:12.814Z,72.90
2022-08-24T18:08:39.788Z,72.90
2022-08-24T18:11:06.739Z,72.50
2022-08-24T18:13:33.667Z,73.00
2022-08-24T18:16:02.065Z,72.60
2022-08-24T18:18:28.961Z,72.70
2022-08-24T18:20:55.825Z,73.50
2022-08-24T18:23:24.712Z,72.90
2022-08-24T18:25:52.704Z,73.60
2022-08-24T18:28:21.995Z,73.80
2022-08-24T18:30:50.693Z,74.00
2022-08-24T18:33:18.846Z,73.70
2022-08-24T18:35:45.588Z,73.60
2022-08-24T18:38:13.100Z,73.10
2022-08-24T18:40:40.854Z,73.20
2022-08-24T18:43:21.866Z,72.90
2022-08-24T18:45:48.695Z,73.60
2022-08-24T18:48:15.789Z,73.90
2022-08-24T18:50:43.969Z,73.30
2022-08-24T18:53:10.978Z,73.50
2022-08-24T18:55:37.762Z,73.40
2022-08-24T18:58:04.635Z,74.40
2022-08-24T19:00:31.791Z,74.80
2022-08-24T19:03:02.702Z,74.40
2022-08-24T19:05:29.574Z,74.30
2022-08-24T19:07:57.679Z,74.10
2022-08-24T19:10:26.779Z,74.00
2022-08-24T19:12:56.914Z,73.60
2022-08-24T19:15:31.958Z,74.10
2022-08-24T19:18:07.606Z,75.40
2022-08-24T19:20:35.097Z,75.50
2022-08-24T19:23:07.585Z,75.00
2022-08-24T19:25:36.208Z,75.80
2022-08-24T19:28:03.762Z,76.50
2022-08-24T19:30:30.813Z,76.10
2022-08-24T19:32:58.141Z,76.60
2022-08-24T19:35:25.364Z,75.30
2022-08-24T19:37:52.171Z,75.90
2022-08-24T19:40:20.412Z,75.40
2022-08-24T19:42:47.779Z,75.40
2022-08-24T19:45:16.342Z,75.60
2022-08-24T19:47:43.121Z,75.60
2022-08-24T19:50:10.934Z,76.70
2022-08-24T19:52:38.735Z,76.70
2022-08-24T19:55:07.115Z,76.20
2022-08-24T19:57:43.277Z,76.80
2022-08-24T20:00:26.983Z,76.00
2022-08-24T20:02:56.175Z,76.40
2022-08-24T20:05:24.796Z,75.90
2022-08-24T20:07:51.577Z,76.00
2022-08-24T20:10:21.050Z,76.70
2022-08-24T20:12:49.316Z,75.80
2022-08-24T20:15:16.366Z,75.80
2022-08-24T20:17:43.269Z,75.70
2022-08-24T20:20:12.103Z,75.80
2022-08-24T20:22:38.984Z,75.90
2022-08-24T20:25:06.758Z,75.90
2022-08-24T20:27:33.662Z,75.80
2022-08-24T20:30:02.928Z,77.30
2022-08-24T20:32:29.671Z,77.50
2022-08-24T20:34:56.536Z,76.90
2022-08-24T20:37:25.347Z,76.90
2022-08-24T20:39:53.119Z,76.80
2022-08-24T20:42:21.444Z,77.10
2022-08-24T20:44:48.622Z,77.80
2022-08-24T20:47:17.643Z,77.90
2022-08-24T20:49:44.426Z,77.00
2022-08-24T20:52:11.288Z,76.60
2022-08-24T20:54:39.848Z,77.30
2022-08-24T20:57:08.044Z,77.20
2022-08-24T20:59:34.832Z,77.20
2022-08-24T21:02:01.714Z,77.70
2022-08-24T21:04:29.829Z,77.10
2022-08-24T21:06:56.816Z,77.10
2022-08-24T21:09:24.019Z,77.20
2022-08-24T21:11:50.890Z,77.30
2022-08-24T21:14:17.698Z,77.50
2022-08-24T21:16:44.529Z,77.60
2022-08-24T21:19:13.400Z,77.10
2022-08-24T21:21:42.661Z,78.20
2022-08-24T21:24:09.805Z,78.20
2022-08-24T21:26:36.800Z,78.00
2022-08-24T21:29:05.262Z,77.50
2022-08-24T21:31:32.092Z,77.30
2022-08-24T21:33:58.835Z,77.70
2022-08-24T21:36:27.692Z,77.90
2022-08-24T21:38:55.883Z,77.90
2022-08-24T21:41:22.694Z,78.70
2022-08-24T21:43:49.594Z,77.70
2022-08-24T21:46:16.536Z,77.70
2022-08-24T21:48:43.329Z,77.90
2022-08-24T21:51:10.085Z,78.10
2022-08-24T21:53:36.873Z,77.90
2022-08-24T21:56:05.667Z,78.00
2022-08-24T21:58:32.421Z,78.00
2022-08-24T22:01:00.066Z,79.40
2022-08-24T22:03:27.107Z,77.80
2022-08-24T22:05:59.970Z,78.60
2022-08-24T22:08:27.936Z,78.00
2022-08-24T22:10:54.845Z,79.20
2022-08-24T22:13:22.910Z,78.40
2022-08-24T22:15:49.709Z,78.20
2022-08-24T22:18:16.499Z,77.80
2022-08-24T22:20:43.292Z,77.50
2022-08-24T22:23:10.017Z,77.90
2022-08-24T22:25:36.776Z,78.50
2022-08-24T22:28:04.105Z,77.40
2022-08-24T22:30:33.249Z,78.10
2022-08-24T22:33:00.126Z,78.00
2022-08-24T22:35:27.432Z,78.10
2022-08-24T22:37:54.182Z,78.60
2022-08-24T22:40:21.117Z,77.70
2022-08-24T22:42:47.875Z,78.20
2022-08-24T22:45:14.648Z,78.40
2022-08-24T22:47:42.798Z,78.20
2022-08-24T22:50:09.830Z,77.90
2022-08-24T22:52:36.715Z,77.70
2022-08-24T22:55:04.233Z,77.70
2022-08-24T22:57:31.074Z,77.90
2022-08-24T22:59:57.968Z,77.90
2022-08-24T23:02:24.769Z,78.70
2022-08-24T23:04:53.459Z,78.10
2022-08-24T23:07:20.784Z,79.90
2022-08-24T23:09:47.845Z,78.80
2022-08-24T23:12:22.467Z,79.20
2022-08-24T23:14:50.097Z,78.50
2022-08-24T23:17:17.594Z,78.10
2022-08-24T23:19:44.345Z,78.00
2022-08-24T23:22:15.125Z,78.50
2022-08-24T23:24:42.462Z,78.70
2022-08-24T23:27:10.591Z,78.60
2022-08-24T23:29:38.042Z,78.50
2022-08-24T23:32:05.505Z,78.70
2022-08-24T23:34:32.837Z,78.30
2022-08-24T23:36:59.631Z,78.00
2022-08-24T23:39:28.315Z,79.10
2022-08-24T23:41:55.322Z,78.70
2022-08-24T23:44:23.946Z,80.50
2022-08-24T23:46:50.691Z,79.80
2022-08-24T23:49:19.655Z,79.50
2022-08-24T23:51:47.137Z,79.70
2022-08-24T23:54:14.485Z,80.10
2022-08-24T23:56:45.075Z,80.00
2022-08-24T23:59:13.590Z,79.60
